Time;durP1;ratioP1;P1;durP2;ratioP2;P2;SDS_P1;SDS_P2;PMS_P1;PMS_P2;Temp;Humidity;BMP_temperature;BMP_pressure;BME280_temperature;BME280_humidity;BME280_pressure;Samples;Min_cycle;Max_cycle;Signal;HPM_P1;HPM_P2
2021/08/15 00:02:56;;;;;;;4.10;1.42;;;14.30;57.00;;;;;;4972659;28;20236;-49
2021/08/15 00:05:29;;;;;;;6.47;2.05;;;14.30;57.10;;;;;;4972186;28;20241;-56
2021/08/15 00:07:59;;;;;;;4.78;1.80;;;14.40;57.10;;;;;;4972249;28;20245;-54
2021/08/15 00:10:30;;;;;;;4.93;1.48;;;14.40;57.10;;;;;;4972520;28;20206;-51
2021/08/15 00:13:00;;;;;;;5.82;1.80;;;14.40;57.10;;;;;;4972366;28;20285;-56
2021/08/15 00:15:30;;;;;;;3.28;1.50;;;14.50;57.20;;;;;;4972675;28;20253;-52
2021/08/15 00:18:01;;;;;;;5.78;1.58;;;14.50;57.20;;;;;;4972761;28;20260;-55
2021/08/15 00:20:33;;;;;;;5.05;1.75;;;14.50;57.10;;;;;;4971817;28;20285;-50
2021/08/15 00:23:04;;;;;;;7.65;1.80;;;14.50;57.10;;;;;;4971675;28;20265;-55
2021/08/15 00:25:34;;;;;;;3.58;1.63;;;14.60;57.20;;;;;;4971541;28;20641;-52
2021/08/15 00:28:05;;;;;;;4.88;1.80;;;14.60;57.20;;;;;;4971066;28;20240;-55
2021/08/15 00:30:35;;;;;;;5.03;2.00;;;14.60;57.10;;;;;;4971059;28;20237;-57
2021/08/15 00:33:06;;;;;;;3.50;1.50;;;14.70;57.10;;;;;;4970886;28;20234;-55
2021/08/15 00:35:55;;;;;;;4.15;2.10;;;14.70;57.10;;;;;;4971565;28;20607;-52
2021/08/15 00:38:26;;;;;;;3.72;1.67;;;14.70;57.10;;;;;;4971508;28;20233;-50
2021/08/15 00:40:56;;;;;;;3.15;1.50;;;14.80;57.20;;;;;;4971707;28;20249;-55
2021/08/15 00:43:27;;;;;;;5.00;1.63;;;14.80;57.20;;;;;;4971938;28;20318;-53
2021/08/15 00:45:58;;;;;;;5.43;1.85;;;14.80;57.10;;;;;;4972068;28;20276;-54
2021/08/15 00:48:28;;;;;;;3.63;1.70;;;14.90;57.20;;;;;;4972129;28;20286;-52
2021/08/15 00:51:01;;;;;;;3.97;2.20;;;14.90;57.30;;;;;;4952782;28;20231;-57
2021/08/15 00:53:32;;;;;;;4.32;1.58;;;14.90;57.20;;;;;;4952553;28;20194;-58
2021/08/15 00:56:03;;;;;;;2.85;1.70;;;14.90;57.20;;;;;;4956526;28;20713;-53
2021/08/15 00:58:34;;;;;;;5.40;1.90;;;15.00;57.30;;;;;;4972059;28;20233;-54
2021/08/15 01:01:22;;;;;;;6.22;2.10;;;15.00;57.30;;;;;;4975252;28;20233;-51
2021/08/15 01:03:52;;;;;;;5.28;2.53;;;15.00;57.30;;;;;;4975061;28;20798;-54
2021/08/15 01:06:25;;;;;;;2.97;1.58;;;15.10;57.30;;;;;;4975192;28;20268;-54
2021/08/15 01:11:34;;;;;;;3.72;1.85;;;15.20;57.30;;;;;;5011602;28;20224;-57
2021/08/15 01:14:05;;;;;;;3.95;2.03;;;15.20;57.30;;;;;;5014865;28;20200;-50
2021/08/15 01:16:53;;;;;;;4.70;2.17;;;15.20;57.30;;;;;;5014135;28;20267;-51
2021/08/15 01:19:30;;;;;;;3.83;1.90;;;15.20;57.30;;;;;;5013702;28;20240;-56
2021/08/15 01:22:20;;;;;;;3.97;2.13;;;15.30;57.40;;;;;;5013981;28;20196;-53
2021/08/15 01:24:51;;;;;;;5.57;1.92;;;15.30;57.40;;;;;;5014150;28;20228;-49
2021/08/15 01:27:22;;;;;;;5.63;2.25;;;15.40;57.40;;;;;;5014133;28;20650;-49
2021/08/15 01:29:54;;;;;;;2.95;1.85;;;15.40;57.30;;;;;;5014366;28;20224;-53
2021/08/15 01:32:25;;;;;;;3.60;2.15;;;15.40;57.30;;;;;;5014219;28;20280;-51
2021/08/15 01:37:59;;;;;;;3.83;1.95;;;15.50;57.30;;;;;;5010559;28;20281;-52
2021/08/15 01:40:30;;;;;;;2.95;1.60;;;15.50;57.30;;;;;;5005029;28;20679;-54
2021/08/15 01:43:18;;;;;;;5.80;2.10;;;15.60;57.30;;;;;;5013948;28;20260;-57
2021/08/15 01:45:51;;;;;;;5.10;2.03;;;15.60;57.30;;;;;;5013842;28;20228;-53
2021/08/15 01:48:21;;;;;;;3.03;1.70;;;15.60;57.30;;;;;;5013090;28;20725;-51
2021/08/15 01:50:51;;;;;;;3.03;1.80;;;15.70;57.40;;;;;;5013640;28;20759;-54
2021/08/15 01:53:22;;;;;;;4.40;1.60;;;15.70;57.40;;;;;;5013341;28;20208;-57
2021/08/15 01:58:39;;;;;;;2.75;1.50;;;15.80;57.30;;;;;;5013402;28;20298;-46
2021/08/15 02:01:12;;;;;;;2.10;1.42;;;15.80;57.30;;;;;;5013209;28;20707;-56
2021/08/15 02:03:43;;;;;;;3.15;1.73;;;15.90;57.30;;;;;;5013318;28;20755;-52
2021/08/15 02:06:13;;;;;;;3.60;1.70;;;15.90;57.30;;;;;;5012966;28;20299;-53
2021/08/15 02:08:44;;;;;;;3.60;1.80;;;15.90;57.40;;;;;;5012907;28;20292;-55
2021/08/15 02:14:00;;;;;;;2.47;1.40;;;16.00;57.50;;;;;;5013320;28;20195;-49
2021/08/15 02:16:33;;;;;;;2.72;1.83;;;16.00;57.50;;;;;;5013351;28;20240;-55
2021/08/15 02:19:03;;;;;;;3.40;1.73;;;16.10;57.50;;;;;;5013045;28;20283;-54
2021/08/15 02:21:34;;;;;;;2.70;1.65;;;16.10;57.50;;;;;;5013226;28;20241;-54
2021/08/15 02:24:04;;;;;;;3.75;1.85;;;16.10;57.50;;;;;;5013075;28;20311;-57
2021/08/15 02:26:34;;;;;;;3.88;1.80;;;16.20;57.50;;;;;;5012414;28;20263;-56
2021/08/15 02:29:05;;;;;;;2.55;1.63;;;16.20;57.40;;;;;;5012508;28;20403;-49
2021/08/15 02:31:37;;;;;;;1.83;1.25;;;16.20;57.40;;;;;;5012303;28;20224;-53
2021/08/15 02:34:07;;;;;;;3.30;1.48;;;16.30;57.50;;;;;;5012032;28;20244;-56
2021/08/15 02:36:38;;;;;;;2.42;1.45;;;16.40;57.50;;;;;;5012670;28;20260;-55
2021/08/15 02:39:08;;;;;;;3.03;1.88;;;16.40;57.50;;;;;;5012694;28;20228;-51
2021/08/15 02:41:39;;;;;;;2.53;1.70;;;16.40;57.50;;;;;;5012100;28;20237;-55
2021/08/15 02:44:09;;;;;;;3.42;1.60;;;16.50;57.60;;;;;;5011311;28;20312;-54
2021/08/15 02:46:59;;;;;;;1.90;1.60;;;16.50;57.60;;;;;;5012145;28;20252;-50
2021/08/15 02:49:30;;;;;;;2.08;1.30;;;16.60;57.60;;;;;;5012424;28;20302;-57
2021/08/15 02:52:17;;;;;;;2.63;1.85;;;16.60;57.50;;;;;;5012386;28;20286;-56
2021/08/15 02:54:48;;;;;;;4.68;1.80;;;16.60;57.60;;;;;;5012144;28;20287;-50
2021/08/15 02:57:18;;;;;;;3.20;1.80;;;16.70;57.50;;;;;;5012103;28;20303;-53
2021/08/15 02:59:49;;;;;;;2.13;1.40;;;16.70;57.50;;;;;;5012193;28;20228;-48
2021/08/15 03:02:21;;;;;;;3.13;1.50;;;16.70;57.40;;;;;;5009593;28;20236;-55
2021/08/15 03:04:52;;;;;;;2.92;1.30;;;16.80;57.40;;;;;;5010368;28;20229;-57
2021/08/15 03:07:23;;;;;;;2.63;1.50;;;16.80;57.40;;;;;;5010435;28;20256;-45
2021/08/15 03:09:53;;;;;;;2.85;1.52;;;16.90;57.40;;;;;;5011687;28;20292;-45
2021/08/15 03:12:23;;;;;;;2.90;1.45;;;17.00;57.50;;;;;;5011220;28;20691;-44
2021/08/15 03:14:54;;;;;;;3.90;1.65;;;17.00;57.40;;;;;;5011011;28;20621;-52
2021/08/15 03:17:26;;;;;;;2.70;1.52;;;17.10;57.40;;;;;;5011438;28;20705;-50
2021/08/15 03:19:57;;;;;;;3.47;1.70;;;17.10;57.40;;;;;;5010818;28;20203;-55
2021/08/15 03:22:27;;;;;;;2.80;1.52;;;17.10;57.40;;;;;;5011425;28;20231;-52
2021/08/15 03:25:15;;;;;;;2.30;1.42;;;17.20;57.40;;;;;;5010807;28;20316;-49
2021/08/15 03:27:45;;;;;;;3.00;1.50;;;17.20;57.40;;;;;;5011137;28;20252;-51
2021/08/15 03:30:16;;;;;;;2.33;1.40;;;17.20;57.30;;;;;;5011269;28;20236;-55
2021/08/15 03:32:48;;;;;;;2.08;1.58;;;17.30;57.30;;;;;;5010127;28;20283;-44
2021/08/15 03:35:19;;;;;;;3.13;1.60;;;17.30;57.30;;;;;;5010121;28;20201;-47
2021/08/15 03:37:49;;;;;;;3.03;1.70;;;17.40;57.30;;;;;;5010548;28;20698;-45
2021/08/15 03:40:37;;;;;;;2.55;1.35;;;17.40;57.30;;;;;;5010708;28;20720;-54
2021/08/15 03:43:08;;;;;;;4.28;1.60;;;17.50;57.20;;;;;;5009884;28;20721;-52
2021/08/15 03:45:39;;;;;;;3.08;1.40;;;17.50;57.20;;;;;;5011204;28;20400;-53
2021/08/15 03:48:11;;;;;;;3.65;1.65;;;17.50;57.10;;;;;;5010996;28;20193;-55
2021/08/15 03:50:42;;;;;;;2.20;1.40;;;17.50;57.10;;;;;;5011703;28;20680;-44
2021/08/15 03:53:12;;;;;;;2.35;1.40;;;17.60;57.00;;;;;;5010359;28;20566;-57
2021/08/15 03:55:42;;;;;;;3.25;1.40;;;17.60;56.90;;;;;;5010446;28;20243;-44
2021/08/15 03:58:13;;;;;;;2.08;1.33;;;17.70;56.90;;;;;;5010258;28;20231;-45
2021/08/15 04:00:43;;;;;;;2.67;1.40;;;17.70;56.90;;;;;;5010534;28;20291;-48
2021/08/15 04:03:16;;;;;;;2.72;1.42;;;17.70;56.90;;;;;;5009619;28;20312;-44
2021/08/15 04:05:46;;;;;;;2.35;1.42;;;17.80;56.80;;;;;;4990774;28;20229;-57
2021/08/15 04:08:16;;;;;;;2.00;1.23;;;17.80;56.80;;;;;;4991552;28;20284;-58
2021/08/15 04:10:47;;;;;;;2.42;1.35;;;17.80;56.80;;;;;;4991024;28;20237;-47
2021/08/15 04:13:35;;;;;;;2.25;1.13;;;17.80;56.70;;;;;;4991510;28;20280;-46
2021/08/15 04:16:05;;;;;;;2.33;1.20;;;17.90;56.50;;;;;;4990319;28;20713;-52
2021/08/15 04:18:37;;;;;;;1.90;1.15;;;17.90;56.10;;;;;;4991134;28;20240;-52
2021/08/15 04:21:25;;;;;;;2.85;1.15;;;18.00;55.70;;;;;;4990803;28;20229;-52
2021/08/15 04:23:56;;;;;;;1.27;0.98;;;18.00;55.70;;;;;;4991302;28;20260;-47
2021/08/15 04:26:44;;;;;;;3.17;1.10;;;18.00;55.60;;;;;;4997377;28;20256;-44
2021/08/15 04:29:15;;;;;;;2.60;1.17;;;18.10;55.60;;;;;;5010937;28;20279;-50
2021/08/15 04:31:45;;;;;;;1.05;0.90;;;18.10;55.60;;;;;;5009221;28;20240;-49
2021/08/15 04:34:51;;;;;;;1.70;1.30;;;18.10;55.60;;;;;;5012781;28;20235;-48
2021/08/15 04:37:23;;;;;;;1.60;1.05;;;18.10;55.60;;;;;;5014106;28;20255;-46
2021/08/15 04:39:53;;;;;;;2.47;1.10;;;18.20;55.50;;;;;;5014323;28;20283;-45
2021/08/15 04:42:24;;;;;;;1.45;1.02;;;18.10;55.50;;;;;;5014665;28;20232;-47
2021/08/15 04:44:54;;;;;;;2.42;1.20;;;18.20;55.50;;;;;;5014465;28;20316;-51
2021/08/15 04:47:25;;;;;;;1.75;0.90;;;18.20;55.50;;;;;;5014406;28;20240;-46
2021/08/15 04:49:55;;;;;;;1.45;1.05;;;18.20;55.50;;;;;;5014669;28;20237;-44
2021/08/15 04:52:45;;;;;;;1.27;1.00;;;18.20;55.30;;;;;;5014760;28;20236;-47
2021/08/15 04:55:15;;;;;;;0.98;0.80;;;18.20;55.20;;;;;;5014473;28;20247;-52
2021/08/15 04:57:46;;;;;;;2.40;1.15;;;18.20;55.20;;;;;;5014385;28;20626;-47
2021/08/15 05:00:17;;;;;;;1.05;0.93;;;18.20;55.10;;;;;;5014799;28;20232;-50
2021/08/15 05:02:47;;;;;;;2.13;1.20;;;18.20;55.20;;;;;;5014511;28;20232;-53
2021/08/15 05:05:17;;;;;;;1.25;1.00;;;18.20;55.30;;;;;;5014223;28;20312;-44
2021/08/15 05:07:50;;;;;;;2.03;0.98;;;18.30;55.40;;;;;;5013998;28;20259;-47
2021/08/15 05:10:20;;;;;;;1.73;1.00;;;18.20;55.40;;;;;;5014648;28;20248;-46
2021/08/15 05:12:51;;;;;;;1.63;1.02;;;18.20;55.30;;;;;;5013881;28;20200;-46
2021/08/15 05:15:39;;;;;;;2.17;0.90;;;18.20;55.20;;;;;;5014076;28;20203;-48
2021/08/15 05:18:09;;;;;;;1.45;1.00;;;18.20;55.10;;;;;;5014620;28;20251;-45
2021/08/15 05:20:39;;;;;;;0.98;0.90;;;18.20;55.10;;;;;;5013941;28;20201;-44
2021/08/15 05:23:12;;;;;;;0.88;0.80;;;18.20;55.20;;;;;;5014397;28;20232;-58
2021/08/15 05:25:42;;;;;;;1.67;1.02;;;18.20;55.20;;;;;;5014287;28;20240;-54
2021/08/15 05:28:13;;;;;;;0.73;0.70;;;18.20;55.10;;;;;;5014346;28;20240;-46
2021/08/15 05:33:47;;;;;;;1.40;0.90;;;18.20;55.30;;;;;;5013299;28;20784;-49
2021/08/15 05:36:35;;;;;;;1.23;1.00;;;18.20;55.30;;;;;;5013698;28;20265;-48
2021/08/15 05:39:07;;;;;;;1.67;0.80;;;18.20;55.30;;;;;;5013912;28;20236;-53
2021/08/15 05:41:38;;;;;;;2.80;1.10;;;18.20;55.40;;;;;;5013399;28;20732;-54
2021/08/15 05:44:09;;;;;;;1.73;0.85;;;18.20;55.40;;;;;;5013696;28;20311;-55
2021/08/15 05:46:57;;;;;;;1.67;1.15;;;18.20;55.30;;;;;;5012903;28;20217;-53
2021/08/15 05:49:27;;;;;;;1.02;0.90;;;18.20;55.30;;;;;;5013012;28;20228;-53
2021/08/15 05:51:57;;;;;;;4.40;1.63;;;18.20;55.30;;;;;;5012177;28;20232;-51
2021/08/15 05:54:30;;;;;;;2.33;1.00;;;18.20;55.30;;;;;;5013092;28;20668;-55
2021/08/15 05:57:00;;;;;;;2.15;0.98;;;18.20;55.30;;;;;;5012130;28;20221;-48
2021/08/15 05:59:31;;;;;;;1.10;1.00;;;18.20;55.30;;;;;;5012210;28;20283;-50
2021/08/15 06:02:01;;;;;;;1.17;0.98;;;18.20;55.20;;;;;;5012700;28;20240;-56
2021/08/15 06:04:32;;;;;;;2.03;0.82;;;18.10;55.20;;;;;;5012668;28;20231;-51
2021/08/15 06:07:02;;;;;;;2.08;0.70;;;18.10;55.20;;;;;;5012949;28;20316;-47
2021/08/15 06:09:52;;;;;;;0.88;0.70;;;18.10;55.20;;;;;;5013382;28;20212;-52
2021/08/15 06:12:23;;;;;;;1.40;0.80;;;18.10;55.30;;;;;;5011966;28;20243;-51
2021/08/15 06:14:53;;;;;;;1.65;1.10;;;18.10;55.30;;;;;;5012161;28;20232;-54
2021/08/15 06:20:28;;;;;;;0.80;0.80;;;18.10;55.30;;;;;;5013211;28;20247;-56
2021/08/15 06:22:58;;;;;;;1.30;0.80;;;18.10;55.30;;;;;;5013029;28;20205;-57
2021/08/15 06:25:31;;;;;;;1.05;0.90;;;18.00;55.30;;;;;;5012638;28;20311;-57
2021/08/15 06:28:01;;;;;;;1.20;0.80;;;18.00;55.30;;;;;;4992828;28;20273;-57
2021/08/15 06:30:32;;;;;;;1.30;0.70;;;18.00;55.30;;;;;;4993588;28;20229;-47
2021/08/15 06:33:02;;;;;;;1.27;0.80;;;18.00;55.30;;;;;;4993176;28;20236;-57
2021/08/15 06:35:33;;;;;;;2.33;1.08;;;18.00;55.30;;;;;;4992723;28;20567;-57
2021/08/15 06:38:03;;;;;;;1.33;0.90;;;18.00;55.30;;;;;;4992674;28;20244;-51
2021/08/15 06:40:35;;;;;;;1.45;0.88;;;17.90;55.30;;;;;;4992633;28;20236;-55
2021/08/15 06:43:09;;;;;;;0.88;0.77;;;17.90;55.30;;;;;;4992660;28;20239;-55
2021/08/15 06:45:39;;;;;;;1.27;0.82;;;17.90;55.30;;;;;;4992507;28;20264;-54
2021/08/15 06:48:10;;;;;;;2.05;0.80;;;17.80;55.30;;;;;;4997112;28;20227;-56
2021/08/15 06:50:41;;;;;;;1.02;0.80;;;17.80;55.40;;;;;;5011968;28;20604;-55
2021/08/15 06:53:11;;;;;;;1.60;1.00;;;17.80;55.50;;;;;;5012274;28;20201;-57
2021/08/15 06:55:44;;;;;;;1.20;0.90;;;17.80;55.50;;;;;;5012141;28;20611;-54
2021/08/15 07:01:01;;;;;;;1.30;0.77;;;17.80;55.50;;;;;;5012462;28;20703;-57
2021/08/15 07:03:31;;;;;;;0.93;0.80;;;17.80;55.50;;;;;;5012078;28;20232;-58
2021/08/15 07:06:02;;;;;;;1.15;0.90;;;17.80;55.50;;;;;;5011805;28;20324;-55
2021/08/15 07:08:32;;;;;;;1.27;0.85;;;17.70;55.50;;;;;;5012163;28;20232;-57
2021/08/15 07:11:04;;;;;;;1.20;0.77;;;17.70;55.50;;;;;;5022956;23;20252;-54
2021/08/15 07:13:35;;;;;;;1.13;0.85;;;17.70;55.50;;;;;;5012001;28;20209;-56
2021/08/15 07:16:05;;;;;;;1.27;1.17;;;17.70;55.60;;;;;;5012001;28;20312;-54
2021/08/15 07:18:36;;;;;;;1.42;0.80;;;17.70;55.60;;;;;;5011947;28;20197;-55
2021/08/15 07:21:06;;;;;;;0.88;0.60;;;17.60;55.50;;;;;;5011678;28;20239;-51
2021/08/15 07:23:37;;;;;;;1.30;0.90;;;17.60;55.60;;;;;;5011340;28;20228;-52
2021/08/15 07:26:09;;;;;;;1.35;0.80;;;17.60;55.60;;;;;;5010857;28;20315;-57
2021/08/15 07:28:39;;;;;;;1.00;0.77;;;17.60;55.60;;;;;;5011561;28;20287;-53
2021/08/15 07:31:28;;;;;;;2.33;0.90;;;17.50;55.60;;;;;;5011973;28;20278;-55
2021/08/15 07:36:45;;;;;;;1.00;0.80;;;17.50;55.50;;;;;;5011813;28;20290;-52
2021/08/15 07:39:15;;;;;;;1.65;0.95;;;17.50;55.50;;;;;;5011791;28;20226;-51
2021/08/15 07:41:48;;;;;;;1.27;1.00;;;17.50;55.60;;;;;;5011208;28;20287;-56
2021/08/15 07:44:18;;;;;;;0.90;0.80;;;17.50;55.50;;;;;;5011111;28;20307;-54
2021/08/15 07:46:49;;;;;;;1.75;0.90;;;17.50;55.60;;;;;;5011769;28;20248;-49
2021/08/15 07:49:19;;;;;;;1.40;1.00;;;17.50;55.60;;;;;;5011354;28;20236;-56
2021/08/15 07:51:49;;;;;;;0.80;0.70;;;17.40;55.60;;;;;;5011369;28;20426;-55
2021/08/15 07:54:20;;;;;;;0.77;0.70;;;17.40;55.60;;;;;;5011838;28;20232;-55
2021/08/15 07:56:52;;;;;;;0.73;0.65;;;17.40;55.60;;;;;;5011635;28;20311;-50
2021/08/15 07:59:23;;;;;;;1.30;0.90;;;17.40;55.60;;;;;;5011574;28;20280;-50
2021/08/15 08:01:53;;;;;;;1.25;1.00;;;17.30;55.60;;;;;;5010491;28;20628;-54
2021/08/15 08:04:41;;;;;;;1.10;0.80;;;17.30;55.60;;;;;;5010456;28;20689;-56
2021/08/15 08:07:12;;;;;;;1.73;0.80;;;17.30;55.60;;;;;;5011350;28;20274;-52
2021/08/15 08:09:43;;;;;;;0.82;0.65;;;17.30;55.70;;;;;;5026835;23;20264;-57
2021/08/15 08:12:15;;;;;;;2.50;0.77;;;17.30;55.70;;;;;;5015289;28;20239;-55
2021/08/15 08:14:46;;;;;;;1.02;0.82;;;17.30;55.80;;;;;;5015153;28;20660;-57
2021/08/15 08:17:16;;;;;;;1.65;0.70;;;17.30;56.40;;;;;;5015409;28;20691;-54
2021/08/15 08:22:33;;;;;;;1.33;0.98;;;17.30;56.50;;;;;;5015331;28;20290;-56
2021/08/15 08:25:03;;;;;;;0.80;0.70;;;17.30;56.40;;;;;;5014818;28;20315;-57
2021/08/15 08:27:36;;;;;;;0.80;0.77;;;17.30;56.40;;;;;;5015188;28;20260;-56
2021/08/15 08:30:07;;;;;;;3.03;1.10;;;17.30;56.40;;;;;;5015412;28;20276;-54
2021/08/15 08:32:37;;;;;;;2.42;1.00;;;17.30;56.40;;;;;;5015219;28;20696;-52
2021/08/15 08:35:08;;;;;;;2.38;0.90;;;17.20;56.30;;;;;;5014350;28;20239;-49
2021/08/15 08:37:39;;;;;;;2.47;0.80;;;17.20;56.30;;;;;;5012898;28;20248;-55
2021/08/15 08:40:10;;;;;;;0.98;0.70;;;17.20;56.20;;;;;;5014318;28;20233;-56
2021/08/15 08:42:42;;;;;;;1.30;0.85;;;17.20;56.30;;;;;;5013524;28;20602;-54
2021/08/15 08:45:13;;;;;;;0.75;0.73;;;17.10;56.20;;;;;;5013603;28;20330;-56
2021/08/15 08:47:44;;;;;;;1.50;0.75;;;17.10;56.20;;;;;;5013614;28;20254;-56
2021/08/15 08:50:32;;;;;;;0.85;0.63;;;17.10;56.20;;;;;;5014190;28;20784;-55
2021/08/15 08:53:02;;;;;;;1.08;0.77;;;17.10;56.20;;;;;;5013833;28;20232;-56
2021/08/15 08:55:33;;;;;;;1.02;0.77;;;17.10;56.10;;;;;;5014339;28;20241;-56
2021/08/15 08:58:05;;;;;;;1.58;0.65;;;17.10;56.10;;;;;;4994821;28;20257;-54
2021/08/15 09:00:35;;;;;;;1.17;0.90;;;17.00;56.10;;;;;;4993935;28;20225;-55
2021/08/15 09:03:06;;;;;;;1.58;0.60;;;17.00;56.10;;;;;;4994277;28;20284;-56
2021/08/15 09:08:30;;;;;;;1.17;0.70;;;17.00;56.10;;;;;;4994246;28;20391;-53
2021/08/15 09:11:16;;;;;;;1.50;0.80;;;17.00;56.10;;;;;;5016170;23;20255;-52
2021/08/15 09:14:01;;;;;;;1.13;0.70;;;16.90;56.00;;;;;;5013737;28;20644;-47
2021/08/15 09:16:52;;;;;;;0.98;0.80;;;16.90;56.00;;;;;;5013725;28;20267;-52
2021/08/15 09:19:50;;;;;;;1.33;0.85;;;16.90;56.00;;;;;;5012572;28;20275;-49
2021/08/15 09:22:23;;;;;;;0.80;0.70;;;16.90;56.00;;;;;;5013118;28;20197;-49
2021/08/15 09:24:57;;;;;;;1.45;0.90;;;16.90;56.00;;;;;;5013674;28;20267;-48
2021/08/15 09:27:29;;;;;;;1.05;0.82;;;16.80;56.00;;;;;;5013091;28;20306;-49
2021/08/15 09:30:15;;;;;;;0.93;0.75;;;16.80;56.00;;;;;;5013372;28;20236;-46
2021/08/15 09:33:03;;;;;;;1.08;0.73;;;16.80;56.10;;;;;;5012919;28;20232;-50
2021/08/15 09:35:34;;;;;;;1.30;0.70;;;16.80;56.10;;;;;;5013384;28;20236;-51
2021/08/15 09:38:06;;;;;;;0.90;0.60;;;16.80;56.10;;;;;;5013557;28;20631;-51
2021/08/15 09:40:38;;;;;;;0.70;0.60;;;16.70;56.10;;;;;;5013213;28;20669;-47
2021/08/15 09:43:09;;;;;;;1.00;0.70;;;16.70;56.10;;;;;;5013070;28;20236;-45
2021/08/15 09:45:43;;;;;;;1.08;0.70;;;16.70;56.10;;;;;;5013022;28;20283;-44
2021/08/15 09:48:32;;;;;;;1.23;0.77;;;16.70;56.10;;;;;;5013145;28;20361;-47
2021/08/15 09:51:15;;;;;;;0.70;0.70;;;16.70;56.10;;;;;;5012490;28;20236;-48
2021/08/15 09:53:47;;;;;;;1.08;0.90;;;16.70;56.10;;;;;;5011488;28;20228;-49
2021/08/15 09:56:18;;;;;;;0.95;0.77;;;16.60;56.00;;;;;;5011720;28;20267;-45
2021/08/15 10:02:18;;;;;;;0.95;0.65;;;16.60;55.90;;;;;;5012572;28;20243;-46
2021/08/15 10:04:48;;;;;;;0.82;0.80;;;16.60;56.00;;;;;;5013097;28;20228;-51
2021/08/15 10:07:19;;;;;;;1.20;0.80;;;16.60;56.00;;;;;;5011482;28;20244;-50
2021/08/15 10:12:54;;;;;;;0.73;0.70;;;16.60;56.10;;;;;;5012025;28;20196;-51
2021/08/15 10:15:24;;;;;;;0.95;0.60;;;16.50;56.10;;;;;;5012693;28;20284;-51
2021/08/15 10:17:57;;;;;;;0.77;0.77;;;16.50;56.10;;;;;;5012409;28;20657;-49
2021/08/15 10:20:29;;;;;;;0.70;0.65;;;16.50;56.10;;;;;;5011878;28;21121;-52
2021/08/15 10:23:08;;;;;;;0.95;0.60;;;16.50;56.10;;;;;;5011869;28;20280;-51
2021/08/15 10:25:41;;;;;;;0.60;0.60;;;16.50;56.20;;;;;;5012382;28;20263;-47
2021/08/15 10:28:11;;;;;;;1.25;0.63;;;16.40;56.20;;;;;;5011785;28;20236;-47
2021/08/15 10:30:48;;;;;;;0.50;0.50;;;16.40;56.10;;;;;;5011847;28;20237;-48
2021/08/15 10:33:31;;;;;;;0.93;0.63;;;16.40;56.10;;;;;;5012241;28;20627;-45
2021/08/15 10:36:28;;;;;;;2.55;0.70;;;16.40;56.10;;;;;;5011871;28;20225;-48
2021/08/15 10:39:38;;;;;;;0.88;0.50;;;16.40;56.10;;;;;;5012249;28;20335;-51
2021/08/15 10:42:26;;;;;;;1.38;0.70;;;16.40;56.10;;;;;;5008160;28;20716;-51
2021/08/15 10:45:14;;;;;;;0.57;0.57;;;16.40;56.10;;;;;;5009623;28;20287;-50
2021/08/15 10:47:45;;;;;;;1.85;0.82;;;16.40;56.10;;;;;;5008866;28;20232;-43
2021/08/15 10:50:17;;;;;;;0.68;0.60;;;16.30;56.20;;;;;;5007390;28;20316;-45
2021/08/15 10:52:48;;;;;;;1.45;0.73;;;16.30;56.20;;;;;;5008636;28;20288;-46
2021/08/15 10:55:19;;;;;;;2.08;0.93;;;16.30;56.20;;;;;;5008512;28;20292;-51
2021/08/15 10:57:53;;;;;;;5.05;1.40;;;16.30;56.20;;;;;;5008676;28;20307;-49
2021/08/15 11:00:43;;;;;;;3.00;0.98;;;16.30;56.20;;;;;;5007789;28;20283;-53
2021/08/15 11:03:38;;;;;;;6.47;1.50;;;16.20;56.10;;;;;;5008990;28;20292;-49
2021/08/15 11:06:27;;;;;;;8.77;2.10;;;16.20;56.10;;;;;;5009338;28;20264;-54
2021/08/15 11:08:58;;;;;;;7.72;1.48;;;16.20;56.10;;;;;;5003534;28;20288;-56
2021/08/15 11:11:30;;;;;;;3.70;1.70;;;16.20;56.10;;;;;;5010117;28;20649;-52
2021/08/15 11:14:30;;;;;;;7.13;1.67;;;16.20;56.00;;;;;;5009793;28;20250;-46
2021/08/15 11:17:13;;;;;;;5.78;1.70;;;16.20;56.10;;;;;;5009076;28;20220;-49
2021/08/15 11:19:43;;;;;;;5.75;1.70;;;16.20;56.10;;;;;;5009332;28;20200;-51
2021/08/15 11:22:32;;;;;;;4.53;1.80;;;16.10;56.00;;;;;;5009384;28;20235;-50
2021/08/15 11:25:04;;;;;;;3.88;1.67;;;16.10;56.10;;;;;;5007626;28;20707;-55
2021/08/15 11:27:38;;;;;;;7.03;2.08;;;16.10;56.10;;;;;;5008937;28;20266;-48
2021/08/15 11:30:12;;;;;;;5.75;1.92;;;16.10;56.10;;;;;;5008995;28;20751;-50
2021/08/15 11:32:42;;;;;;;3.45;1.45;;;16.10;56.10;;;;;;5009587;28;20210;-49
2021/08/15 11:35:13;;;;;;;3.63;1.60;;;16.10;56.20;;;;;;5009963;28;20240;-51
2021/08/15 11:37:49;;;;;;;4.63;1.98;;;16.10;56.20;;;;;;5008478;28;20308;-45
2021/08/15 11:40:20;;;;;;;7.97;2.10;;;16.10;56.20;;;;;;5009310;28;20232;-52
2021/08/15 11:42:59;;;;;;;3.40;1.60;;;16.00;56.10;;;;;;5008596;28;20288;-48
2021/08/15 11:45:36;;;;;;;3.47;1.63;;;16.00;56.10;;;;;;5008236;28;20231;-52
2021/08/15 11:48:11;;;;;;;5.78;2.25;;;16.00;56.20;;;;;;5009839;28;20292;-45
2021/08/15 11:50:42;;;;;;;5.50;1.98;;;16.00;56.10;;;;;;5011240;28;20223;-47
2021/08/15 11:53:43;;;;;;;6.03;2.00;;;16.00;56.10;;;;;;5010870;28;20232;-50
2021/08/15 11:57:10;;;;;;;6.30;2.15;;;16.00;56.10;;;;;;5010165;28;20315;-50
2021/08/15 11:59:42;;;;;;;5.63;1.60;;;16.00;56.10;;;;;;5008852;28;20207;-54
2021/08/15 12:02:18;;;;;;;6.13;1.70;;;16.00;56.10;;;;;;5010731;28;20460;-52
2021/08/15 12:04:52;;;;;;;6.13;2.20;;;15.90;56.10;;;;;;5010753;28;20239;-47
2021/08/15 12:07:26;;;;;;;4.43;1.83;;;15.90;56.10;;;;;;5010811;28;20319;-49
2021/08/15 12:10:26;;;;;;;7.55;2.17;;;15.90;56.50;;;;;;5011612;28;20739;-51
2021/08/15 12:13:15;;;;;;;5.65;1.92;;;15.90;56.20;;;;;;5011434;28;20293;-47
2021/08/15 12:15:46;;;;;;;4.90;2.10;;;15.90;56.20;;;;;;5011288;28;20244;-53
2021/08/15 12:18:34;;;;;;;6.20;1.92;;;15.90;56.20;;;;;;5011599;28;20664;-48
2021/08/15 12:21:05;;;;;;;4.45;1.88;;;15.80;56.10;;;;;;5011106;28;20657;-47
2021/08/15 12:23:35;;;;;;;3.78;1.70;;;15.90;56.20;;;;;;5011167;28;20238;-52
2021/08/15 12:26:09;;;;;;;4.70;1.83;;;15.80;56.20;;;;;;5011300;28;20320;-49
2021/08/15 12:31:44;;;;;;;4.22;2.08;;;15.80;56.20;;;;;;5011671;28;20196;-52
2021/08/15 12:34:33;;;;;;;2.95;1.80;;;15.80;56.20;;;;;;5011316;28;20233;-52
2021/08/15 12:37:10;;;;;;;5.15;1.50;;;15.80;56.20;;;;;;5011145;28;20817;-53
2021/08/15 12:39:42;;;;;;;4.55;1.88;;;15.80;56.20;;;;;;5011135;28;20645;-51
2021/08/15 12:42:19;;;;;;;3.75;1.50;;;15.80;56.20;;;;;;5011388;28;20200;-50
2021/08/15 12:45:07;;;;;;;5.30;2.40;;;15.70;56.20;;;;;;5011723;28;20658;-48
2021/08/15 12:47:38;;;;;;;3.92;2.00;;;15.80;56.30;;;;;;4991158;28;20260;-49
2021/08/15 12:50:12;;;;;;;4.15;1.92;;;15.70;56.20;;;;;;4990870;28;20281;-50
2021/08/15 12:52:47;;;;;;;3.75;1.90;;;15.70;56.30;;;;;;4991312;28;20205;-50
2021/08/15 12:55:25;;;;;;;3.80;1.92;;;15.70;56.30;;;;;;4993762;28;20192;-45
2021/08/15 12:57:58;;;;;;;5.75;2.55;;;15.70;56.30;;;;;;5013736;28;20260;-50
2021/08/15 13:00:30;;;;;;;3.42;1.90;;;15.70;56.20;;;;;;5014322;28;20626;-45
2021/08/15 13:03:00;;;;;;;5.18;1.92;;;15.70;56.20;;;;;;5014384;28;20233;-44
2021/08/15 13:05:48;;;;;;;3.97;1.95;;;15.70;56.20;;;;;;5014524;28;20236;-46
2021/08/15 13:08:19;;;;;;;3.42;1.80;;;15.60;56.20;;;;;;5013991;28;20280;-47
2021/08/15 13:10:49;;;;;;;4.43;2.20;;;15.60;56.20;;;;;;5025443;23;20256;-55
2021/08/15 13:13:39;;;;;;;4.43;2.00;;;15.60;56.20;;;;;;5014075;28;20201;-57
2021/08/15 13:16:10;;;;;;;7.10;2.38;;;15.60;56.10;;;;;;5013691;28;20247;-56
2021/08/15 13:18:40;;;;;;;6.35;2.00;;;15.60;56.20;;;;;;5014339;28;20288;-53
2021/08/15 13:21:11;;;;;;;4.47;2.38;;;15.60;56.20;;;;;;5014138;28;20246;-54
2021/08/15 13:23:42;;;;;;;4.35;2.00;;;15.60;56.20;;;;;;5014106;28;20197;-56
2021/08/15 13:26:13;;;;;;;4.50;1.83;;;15.60;56.30;;;;;;5013826;28;20766;-55
2021/08/15 13:34:18;;;;;;;5.43;2.10;;;15.60;56.30;;;;;;5014038;28;20191;-56
2021/08/15 13:37:11;;;;;;;3.65;2.00;;;15.60;56.20;;;;;;5013542;28;20255;-55
2021/08/15 13:40:00;;;;;;;3.70;1.90;;;15.50;56.20;;;;;;5013776;28;20634;-57
2021/08/15 13:42:31;;;;;;;3.47;1.85;;;15.50;56.20;;;;;;5013941;28;20205;-55
2021/08/15 13:45:03;;;;;;;2.55;1.90;;;15.50;56.10;;;;;;5013905;28;20240;-56
2021/08/15 13:47:33;;;;;;;3.33;1.83;;;15.50;56.10;;;;;;5013768;28;20264;-54
2021/08/15 13:50:04;;;;;;;4.40;2.00;;;15.50;56.10;;;;;;5014046;28;20239;-55
2021/08/15 13:52:35;;;;;;;4.10;2.00;;;15.50;56.10;;;;;;5013448;28;20272;-56
2021/08/15 13:55:05;;;;;;;6.10;2.40;;;15.50;56.20;;;;;;4993504;28;20263;-55
2021/08/15 13:57:36;;;;;;;4.53;2.20;;;15.50;56.20;;;;;;5010099;28;20264;-56
2021/08/15 14:00:09;;;;;;;5.03;2.15;;;15.40;56.20;;;;;;5013244;28;20852;-55
2021/08/15 14:02:40;;;;;;;3.45;2.00;;;15.40;56.20;;;;;;5013350;28;20197;-57
2021/08/15 14:07:57;;;;;;;5.60;2.00;;;15.40;56.20;;;;;;5012999;28;20235;-55
2021/08/15 14:13:32;;;;;;;3.05;2.17;;;15.40;56.20;;;;;;5033147;28;20226;-54
2021/08/15 14:21:37;;;;;;;4.38;2.00;;;15.40;56.20;;;;;;5032758;28;20196;-57